sensor_id;sensor_type;location;lat;lon;timestamp;P1;durP1;ratioP1;P2;durP2;ratioP2
65279;SDS011;51878;55.748;48.742;2023-05-28T00:04:18;20.13;;;9.20;;
65279;SDS011;51878;55.748;48.742;2023-05-28T00:09:21;20.80;;;8.63;;
65279;SDS011;51878;55.748;48.742;2023-05-28T00:14:23;25.88;;;8.63;;
65279;SDS011;51878;55.748;48.742;2023-05-28T00:19:26;23.20;;;8.77;;
65279;SDS011;51878;55.748;48.742;2023-05-28T00:24:30;20.05;;;8.40;;
65279;SDS011;51878;55.748;48.742;2023-05-28T00:29:32;19.33;;;8.65;;
65279;SDS011;51878;55.748;48.742;2023-05-28T00:34:37;20.65;;;8.43;;
65279;SDS011;51878;55.748;48.742;2023-05-28T00:39:40;17.80;;;7.85;;
65279;SDS011;51878;55.748;48.742;2023-05-28T00:44:42;22.50;;;8.30;;
65279;SDS011;51878;55.748;48.742;2023-05-28T00:49:46;22.10;;;8.20;;
65279;SDS011;51878;55.748;48.742;2023-05-28T00:54:50;19.13;;;7.75;;
65279;SDS011;51878;55.748;48.742;2023-05-28T00:59:53;18.70;;;7.38;;
65279;SDS011;51878;55.748;48.742;2023-05-28T01:05:02;23.25;;;7.53;;
65279;SDS011;51878;55.748;48.742;2023-05-28T01:10:06;25.27;;;7.50;;
65279;SDS011;51878;55.748;48.742;2023-05-28T01:15:12;18.75;;;7.53;;
65279;SDS011;51878;55.748;48.742;2023-05-28T01:20:14;24.80;;;7.60;;
65279;SDS011;51878;55.748;48.742;2023-05-28T01:25:18;23.45;;;7.43;;
65279;SDS011;51878;55.748;48.742;2023-05-28T01:30:21;19.83;;;7.00;;
65279;SDS011;51878;55.748;48.742;2023-05-28T01:35:25;18.52;;;6.90;;
65279;SDS011;51878;55.748;48.742;2023-05-28T01:40:27;21.75;;;7.07;;
65279;SDS011;51878;55.748;48.742;2023-05-28T01:45:30;16.58;;;7.10;;
65279;SDS011;51878;55.748;48.742;2023-05-28T01:50:35;16.02;;;6.63;;
65279;SDS011;51878;55.748;48.742;2023-05-28T01:55:38;25.15;;;6.57;;
65279;SDS011;51878;55.748;48.742;2023-05-28T02:00:42;17.05;;;6.53;;
65279;SDS011;51878;55.748;48.742;2023-05-28T02:05:52;34.85;;;6.43;;
65279;SDS011;51878;55.748;48.742;2023-05-28T02:10:56;14.45;;;6.55;;
65279;SDS011;51878;55.748;48.742;2023-05-28T02:15:59;27.20;;;6.97;;
65279;SDS011;51878;55.748;48.742;2023-05-28T02:21:02;15.80;;;6.38;;
65279;SDS011;51878;55.748;48.742;2023-05-28T02:26:05;16.75;;;5.93;;
65279;SDS011;51878;55.748;48.742;2023-05-28T02:31:07;14.15;;;6.60;;
65279;SDS011;51878;55.748;48.742;2023-05-28T02:36:10;17.25;;;6.35;;
65279;SDS011;51878;55.748;48.742;2023-05-28T02:41:14;19.83;;;6.65;;
65279;SDS011;51878;55.748;48.742;2023-05-28T02:46:16;23.05;;;7.07;;
65279;SDS011;51878;55.748;48.742;2023-05-28T02:51:19;16.85;;;6.22;;
65279;SDS011;51878;55.748;48.742;2023-05-28T02:56:21;27.30;;;6.90;;
65279;SDS011;51878;55.748;48.742;2023-05-28T03:01:26;17.05;;;6.75;;
65279;SDS011;51878;55.748;48.742;2023-05-28T03:06:28;25.20;;;7.40;;
65279;SDS011;51878;55.748;48.742;2023-05-28T03:11:31;23.20;;;6.47;;
65279;SDS011;51878;55.748;48.742;2023-05-28T03:16:33;20.70;;;6.57;;
65279;SDS011;51878;55.748;48.742;2023-05-28T03:21:38;20.55;;;6.70;;
65279;SDS011;51878;55.748;48.742;2023-05-28T03:26:40;26.30;;;7.20;;
65279;SDS011;51878;55.748;48.742;2023-05-28T03:31:43;18.83;;;6.35;;
65279;SDS011;51878;55.748;48.742;2023-05-28T03:36:50;15.45;;;6.43;;
65279;SDS011;51878;55.748;48.742;2023-05-28T03:41:52;15.25;;;5.63;;
65279;SDS011;51878;55.748;48.742;2023-05-28T03:46:54;16.83;;;5.93;;
65279;SDS011;51878;55.748;48.742;2023-05-28T03:51:57;22.80;;;6.45;;
65279;SDS011;51878;55.748;48.742;2023-05-28T03:56:59;16.60;;;5.32;;
65279;SDS011;51878;55.748;48.742;2023-05-28T04:02:01;20.15;;;5.82;;
65279;SDS011;51878;55.748;48.742;2023-05-28T04:07:03;20.27;;;4.90;;
65279;SDS011;51878;55.748;48.742;2023-05-28T04:12:06;16.52;;;4.50;;
65279;SDS011;51878;55.748;48.742;2023-05-28T04:17:11;20.00;;;5.60;;
65279;SDS011;51878;55.748;48.742;2023-05-28T04:22:14;14.30;;;5.00;;
65279;SDS011;51878;55.748;48.742;2023-05-28T04:27:17;18.55;;;4.70;;
65279;SDS011;51878;55.748;48.742;2023-05-28T04:32:19;13.25;;;4.60;;
65279;SDS011;51878;55.748;48.742;2023-05-28T04:37:22;16.23;;;4.85;;
65279;SDS011;51878;55.748;48.742;2023-05-28T04:42:26;14.38;;;4.85;;
65279;SDS011;51878;55.748;48.742;2023-05-28T04:47:29;13.18;;;4.68;;
65279;SDS011;51878;55.748;48.742;2023-05-28T04:52:33;18.40;;;5.25;;
65279;SDS011;51878;55.748;48.742;2023-05-28T04:57:37;17.98;;;4.95;;
65279;SDS011;51878;55.748;48.742;2023-05-28T05:02:39;15.82;;;5.00;;
65279;SDS011;51878;55.748;48.742;2023-05-28T05:07:45;17.63;;;5.47;;
65279;SDS011;51878;55.748;48.742;2023-05-28T05:12:48;20.27;;;5.82;;
65279;SDS011;51878;55.748;48.742;2023-05-28T05:17:50;16.15;;;4.97;;
65279;SDS011;51878;55.748;48.742;2023-05-28T05:22:54;18.13;;;5.88;;
65279;SDS011;51878;55.748;48.742;2023-05-28T05:27:56;19.10;;;4.90;;
65279;SDS011;51878;55.748;48.742;2023-05-28T05:32:58;21.05;;;4.63;;
65279;SDS011;51878;55.748;48.742;2023-05-28T05:38:00;14.90;;;4.95;;
65279;SDS011;51878;55.748;48.742;2023-05-28T05:43:02;20.38;;;5.03;;
65279;SDS011;51878;55.748;48.742;2023-05-28T05:48:05;19.23;;;5.72;;
65279;SDS011;51878;55.748;48.742;2023-05-28T05:53:10;16.77;;;5.55;;
65279;SDS011;51878;55.748;48.742;2023-05-28T05:58:13;18.55;;;5.43;;
65279;SDS011;51878;55.748;48.742;2023-05-28T06:03:15;15.75;;;5.55;;
65279;SDS011;51878;55.748;48.742;2023-05-28T06:08:18;20.50;;;6.05;;
65279;SDS011;51878;55.748;48.742;2023-05-28T06:13:20;16.48;;;5.78;;
65279;SDS011;51878;55.748;48.742;2023-05-28T06:18:23;18.30;;;5.57;;
65279;SDS011;51878;55.748;48.742;2023-05-28T06:23:25;15.93;;;5.30;;
65279;SDS011;51878;55.748;48.742;2023-05-28T06:28:27;15.73;;;5.47;;
65279;SDS011;51878;55.748;48.742;2023-05-28T06:33:32;20.48;;;6.47;;
65279;SDS011;51878;55.748;48.742;2023-05-28T06:38:37;44.15;;;7.72;;
65279;SDS011;51878;55.748;48.742;2023-05-28T06:43:40;18.05;;;5.78;;
65279;SDS011;51878;55.748;48.742;2023-05-28T06:48:42;18.63;;;5.35;;
65279;SDS011;51878;55.748;48.742;2023-05-28T06:53:44;19.23;;;5.47;;
65279;SDS011;51878;55.748;48.742;2023-05-28T06:58:47;20.45;;;6.10;;
65279;SDS011;51878;55.748;48.742;2023-05-28T07:03:51;15.75;;;4.95;;
65279;SDS011;51878;55.748;48.742;2023-05-28T07:08:53;22.30;;;6.35;;
65279;SDS011;51878;55.748;48.742;2023-05-28T07:13:55;18.75;;;6.18;;
65279;SDS011;51878;55.748;48.742;2023-05-28T07:18:57;17.38;;;5.13;;
65279;SDS011;51878;55.748;48.742;2023-05-28T07:24:00;17.63;;;4.97;;
65279;SDS011;51878;55.748;48.742;2023-05-28T07:29:02;12.25;;;4.57;;
65279;SDS011;51878;55.748;48.742;2023-05-28T07:34:04;19.42;;;5.28;;
65279;SDS011;51878;55.748;48.742;2023-05-28T07:39:07;17.73;;;5.22;;
65279;SDS011;51878;55.748;48.742;2023-05-28T07:44:10;21.85;;;5.32;;
65279;SDS011;51878;55.748;48.742;2023-05-28T07:49:13;18.67;;;5.07;;
65279;SDS011;51878;55.748;48.742;2023-05-28T07:54:15;17.05;;;4.78;;
65279;SDS011;51878;55.748;48.742;2023-05-28T07:59:17;16.83;;;4.72;;
65279;SDS011;51878;55.748;48.742;2023-05-28T08:04:20;19.45;;;5.13;;
65279;SDS011;51878;55.748;48.742;2023-05-28T08:09:24;15.80;;;5.80;;
65279;SDS011;51878;55.748;48.742;2023-05-28T08:14:26;12.15;;;4.57;;
65279;SDS011;51878;55.748;48.742;2023-05-28T08:19:28;12.57;;;4.60;;
65279;SDS011;51878;55.748;48.742;2023-05-28T08:24:30;20.40;;;4.43;;
65279;SDS011;51878;55.748;48.742;2023-05-28T08:29:33;61.40;;;6.68;;
65279;SDS011;51878;55.748;48.742;2023-05-28T08:34:35;15.93;;;5.38;;
65279;SDS011;51878;55.748;48.742;2023-05-28T08:39:39;10.07;;;4.05;;
65279;SDS011;51878;55.748;48.742;2023-05-28T08:44:43;18.85;;;4.43;;
65279;SDS011;51878;55.748;48.742;2023-05-28T08:49:50;57.67;;;6.00;;
65279;SDS011;51878;55.748;48.742;2023-05-28T08:54:59;24.60;;;5.55;;
65279;SDS011;51878;55.748;48.742;2023-05-28T09:00:05;17.45;;;4.97;;
65279;SDS011;51878;55.748;48.742;2023-05-28T09:05:20;12.25;;;3.65;;
65279;SDS011;51878;55.748;48.742;2023-05-28T09:10:24;18.52;;;4.55;;
65279;SDS011;51878;55.748;48.742;2023-05-28T09:15:30;12.13;;;4.45;;
65279;SDS011;51878;55.748;48.742;2023-05-28T09:20:38;20.07;;;4.53;;
65279;SDS011;51878;55.748;48.742;2023-05-28T09:25:44;10.30;;;4.20;;
65279;SDS011;51878;55.748;48.742;2023-05-28T09:30:46;53.38;;;6.25;;
65279;SDS011;51878;55.748;48.742;2023-05-28T09:36:01;13.25;;;4.18;;
65279;SDS011;51878;55.748;48.742;2023-05-28T09:41:04;13.55;;;5.18;;
65279;SDS011;51878;55.748;48.742;2023-05-28T09:46:06;15.82;;;4.68;;
65279;SDS011;51878;55.748;48.742;2023-05-28T09:51:10;14.75;;;4.95;;
65279;SDS011;51878;55.748;48.742;2023-05-28T09:56:16;17.15;;;5.07;;
65279;SDS011;51878;55.748;48.742;2023-05-28T10:01:19;18.15;;;5.78;;
65279;SDS011;51878;55.748;48.742;2023-05-28T10:06:26;9.90;;;3.67;;
65279;SDS011;51878;55.748;48.742;2023-05-28T10:11:34;12.00;;;4.70;;
65279;SDS011;51878;55.748;48.742;2023-05-28T10:16:45;11.20;;;4.60;;
65279;SDS011;51878;55.748;48.742;2023-05-28T10:21:50;8.95;;;4.43;;
65279;SDS011;51878;55.748;48.742;2023-05-28T10:26:54;12.48;;;4.13;;
65279;SDS011;51878;55.748;48.742;2023-05-28T10:31:59;18.02;;;4.30;;
65279;SDS011;51878;55.748;48.742;2023-05-28T10:37:03;8.48;;;3.28;;
65279;SDS011;51878;55.748;48.742;2023-05-28T10:42:14;11.45;;;3.70;;
65279;SDS011;51878;55.748;48.742;2023-05-28T10:47:23;8.23;;;3.17;;
65279;SDS011;51878;55.748;48.742;2023-05-28T10:52:38;13.40;;;3.20;;
65279;SDS011;51878;55.748;48.742;2023-05-28T10:57:44;12.65;;;3.25;;
65279;SDS011;51878;55.748;48.742;2023-05-28T11:02:49;13.07;;;3.40;;
65279;SDS011;51878;55.748;48.742;2023-05-28T11:07:54;6.13;;;2.65;;
65279;SDS011;51878;55.748;48.742;2023-05-28T11:12:59;9.68;;;3.30;;
65279;SDS011;51878;55.748;48.742;2023-05-28T11:18:12;8.75;;;3.25;;
65279;SDS011;51878;55.748;48.742;2023-05-28T11:23:14;13.02;;;3.20;;
65279;SDS011;51878;55.748;48.742;2023-05-28T11:28:21;4.63;;;2.30;;
65279;SDS011;51878;55.748;48.742;2023-05-28T11:33:27;5.55;;;2.85;;
65279;SDS011;51878;55.748;48.742;2023-05-28T11:38:30;5.00;;;3.03;;
65279;SDS011;51878;55.748;48.742;2023-05-28T11:43:32;5.05;;;2.97;;
65279;SDS011;51878;55.748;48.742;2023-05-28T11:48:36;7.03;;;3.30;;
65279;SDS011;51878;55.748;48.742;2023-05-28T11:53:40;5.55;;;2.88;;
65279;SDS011;51878;55.748;48.742;2023-05-28T11:58:45;9.13;;;3.13;;
65279;SDS011;51878;55.748;48.742;2023-05-28T12:04:02;4.18;;;2.30;;
65279;SDS011;51878;55.748;48.742;2023-05-28T12:09:05;4.30;;;2.75;;
65279;SDS011;51878;55.748;48.742;2023-05-28T12:14:10;5.28;;;2.63;;
65279;SDS011;51878;55.748;48.742;2023-05-28T12:19:16;5.35;;;2.90;;
65279;SDS011;51878;55.748;48.742;2023-05-28T12:24:20;5.30;;;2.70;;
65279;SDS011;51878;55.748;48.742;2023-05-28T12:29:29;6.60;;;3.00;;
65279;SDS011;51878;55.748;48.742;2023-05-28T12:34:31;5.10;;;3.70;;
65279;SDS011;51878;55.748;48.742;2023-05-28T12:39:33;4.75;;;3.33;;
65279;SDS011;51878;55.748;48.742;2023-05-28T12:44:37;5.00;;;2.90;;
65279;SDS011;51878;55.748;48.742;2023-05-28T12:49:40;6.28;;;2.70;;
65279;SDS011;51878;55.748;48.742;2023-05-28T12:54:42;7.40;;;2.80;;
65279;SDS011;51878;55.748;48.742;2023-05-28T12:59:44;8.77;;;3.33;;
65279;SDS011;51878;55.748;48.742;2023-05-28T13:04:46;7.25;;;2.70;;
65279;SDS011;51878;55.748;48.742;2023-05-28T13:09:49;4.13;;;2.78;;
65279;SDS011;51878;55.748;48.742;2023-05-28T13:14:51;4.78;;;3.00;;
65279;SDS011;51878;55.748;48.742;2023-05-28T13:19:53;4.28;;;2.30;;
65279;SDS011;51878;55.748;48.742;2023-05-28T13:24:55;6.13;;;2.30;;
65279;SDS011;51878;55.748;48.742;2023-05-28T13:29:58;4.78;;;2.80;;
65279;SDS011;51878;55.748;48.742;2023-05-28T13:35:01;7.47;;;2.92;;
65279;SDS011;51878;55.748;48.742;2023-05-28T13:40:06;6.07;;;4.07;;
65279;SDS011;51878;55.748;48.742;2023-05-28T13:45:15;7.82;;;3.92;;
65279;SDS011;51878;55.748;48.742;2023-05-28T13:50:17;5.05;;;3.67;;
65279;SDS011;51878;55.748;48.742;2023-05-28T13:55:19;6.40;;;3.72;;
65279;SDS011;51878;55.748;48.742;2023-05-28T14:00:22;6.15;;;3.10;;
65279;SDS011;51878;55.748;48.742;2023-05-28T14:05:38;8.13;;;2.95;;
65279;SDS011;51878;55.748;48.742;2023-05-28T14:10:41;5.28;;;2.45;;
65279;SDS011;51878;55.748;48.742;2023-05-28T14:15:44;4.82;;;3.42;;
65279;SDS011;51878;55.748;48.742;2023-05-28T14:20:46;6.07;;;3.70;;
65279;SDS011;51878;55.748;48.742;2023-05-28T14:25:48;4.28;;;2.85;;
65279;SDS011;51878;55.748;48.742;2023-05-28T14:30:51;8.10;;;4.32;;
65279;SDS011;51878;55.748;48.742;2023-05-28T14:35:53;5.03;;;3.58;;
65279;SDS011;51878;55.748;48.742;2023-05-28T14:41:08;6.80;;;3.75;;
65279;SDS011;51878;55.748;48.742;2023-05-28T14:46:11;10.90;;;5.07;;
65279;SDS011;51878;55.748;48.742;2023-05-28T14:51:13;7.63;;;5.03;;
65279;SDS011;51878;55.748;48.742;2023-05-28T14:56:16;6.05;;;4.28;;
65279;SDS011;51878;55.748;48.742;2023-05-28T15:01:18;7.55;;;4.32;;
65279;SDS011;51878;55.748;48.742;2023-05-28T15:06:20;7.72;;;5.60;;
65279;SDS011;51878;55.748;48.742;2023-05-28T15:11:22;8.52;;;5.55;;
65279;SDS011;51878;55.748;48.742;2023-05-28T15:16:25;41.28;;;25.02;;
65279;SDS011;51878;55.748;48.742;2023-05-28T15:21:27;20.67;;;12.45;;
65279;SDS011;51878;55.748;48.742;2023-05-28T15:26:30;6.35;;;3.92;;
65279;SDS011;51878;55.748;48.742;2023-05-28T15:31:32;8.18;;;4.10;;
65279;SDS011;51878;55.748;48.742;2023-05-28T15:36:34;4.45;;;3.38;;
65279;SDS011;51878;55.748;48.742;2023-05-28T15:41:38;3.65;;;2.70;;
65279;SDS011;51878;55.748;48.742;2023-05-28T15:46:45;5.40;;;4.28;;
65279;SDS011;51878;55.748;48.742;2023-05-28T15:51:47;4.05;;;3.63;;
65279;SDS011;51878;55.748;48.742;2023-05-28T15:56:49;6.45;;;4.32;;
65279;SDS011;51878;55.748;48.742;2023-05-28T16:01:54;6.97;;;4.15;;
65279;SDS011;51878;55.748;48.742;2023-05-28T16:07:03;7.03;;;4.50;;
65279;SDS011;51878;55.748;48.742;2023-05-28T16:12:06;7.10;;;4.72;;
65279;SDS011;51878;55.748;48.742;2023-05-28T16:17:14;7.93;;;4.80;;
65279;SDS011;51878;55.748;48.742;2023-05-28T16:22:20;7.05;;;4.53;;
65279;SDS011;51878;55.748;48.742;2023-05-28T16:27:22;7.57;;;4.85;;
65279;SDS011;51878;55.748;48.742;2023-05-28T16:32:24;12.88;;;5.95;;
65279;SDS011;51878;55.748;48.742;2023-05-28T16:37:30;8.15;;;5.30;;
65279;SDS011;51878;55.748;48.742;2023-05-28T16:42:32;9.18;;;5.78;;
65279;SDS011;51878;55.748;48.742;2023-05-28T16:47:35;8.15;;;6.05;;
65279;SDS011;51878;55.748;48.742;2023-05-28T16:52:38;9.32;;;6.53;;
65279;SDS011;51878;55.748;48.742;2023-05-28T16:57:42;11.15;;;7.03;;
65279;SDS011;51878;55.748;48.742;2023-05-28T17:02:47;13.70;;;7.70;;
65279;SDS011;51878;55.748;48.742;2023-05-28T17:07:53;14.57;;;7.78;;
65279;SDS011;51878;55.748;48.742;2023-05-28T17:12:57;14.80;;;8.05;;
65279;SDS011;51878;55.748;48.742;2023-05-28T17:17:59;12.60;;;8.85;;
65279;SDS011;51878;55.748;48.742;2023-05-28T17:23:05;12.18;;;8.23;;
65279;SDS011;51878;55.748;48.742;2023-05-28T17:28:07;14.40;;;7.13;;
65279;SDS011;51878;55.748;48.742;2023-05-28T17:33:10;14.73;;;8.57;;
65279;SDS011;51878;55.748;48.742;2023-05-28T17:38:13;16.23;;;9.43;;
65279;SDS011;51878;55.748;48.742;2023-05-28T17:43:15;21.77;;;10.77;;
65279;SDS011;51878;55.748;48.742;2023-05-28T17:48:19;19.23;;;11.80;;
65279;SDS011;51878;55.748;48.742;2023-05-28T17:53:23;24.13;;;10.82;;
65279;SDS011;51878;55.748;48.742;2023-05-28T17:58:31;18.58;;;10.10;;
65279;SDS011;51878;55.748;48.742;2023-05-28T18:03:33;15.13;;;7.97;;
65279;SDS011;51878;55.748;48.742;2023-05-28T18:08:38;10.98;;;7.32;;
65279;SDS011;51878;55.748;48.742;2023-05-28T18:13:42;10.27;;;7.28;;
65279;SDS011;51878;55.748;48.742;2023-05-28T18:18:49;8.55;;;6.50;;
65279;SDS011;51878;55.748;48.742;2023-05-28T18:23:51;10.70;;;7.30;;
65279;SDS011;51878;55.748;48.742;2023-05-28T18:28:55;9.10;;;6.72;;
65279;SDS011;51878;55.748;48.742;2023-05-28T18:34:23;9.27;;;6.93;;
65279;SDS011;51878;55.748;48.742;2023-05-28T18:39:26;6.88;;;6.18;;
65279;SDS011;51878;55.748;48.742;2023-05-28T18:44:36;6.57;;;5.40;;
65279;SDS011;51878;55.748;48.742;2023-05-28T18:49:42;7.43;;;5.43;;
65279;SDS011;51878;55.748;48.742;2023-05-28T18:54:49;11.35;;;7.20;;
65279;SDS011;51878;55.748;48.742;2023-05-28T18:59:58;8.00;;;7.20;;
65279;SDS011;51878;55.748;48.742;2023-05-28T19:10:11;8.00;;;7.20;;
65279;SDS011;51878;55.748;48.742;2023-05-28T19:15:50;8.30;;;7.43;;
65279;SDS011;51878;55.748;48.742;2023-05-28T19:20:58;11.05;;;8.90;;
65279;SDS011;51878;55.748;48.742;2023-05-28T19:26:23;11.18;;;8.43;;
65279;SDS011;51878;55.748;48.742;2023-05-28T19:31:31;8.13;;;7.32;;
65279;SDS011;51878;55.748;48.742;2023-05-28T19:36:34;9.07;;;8.18;;
65279;SDS011;51878;55.748;48.742;2023-05-28T19:41:40;7.97;;;7.18;;
65279;SDS011;51878;55.748;48.742;2023-05-28T19:46:45;9.40;;;6.40;;
65279;SDS011;51878;55.748;48.742;2023-05-28T19:51:58;8.10;;;6.68;;
65279;SDS011;51878;55.748;48.742;2023-05-28T19:57:03;8.00;;;6.68;;
65279;SDS011;51878;55.748;48.742;2023-05-28T20:02:14;8.95;;;7.53;;
65279;SDS011;51878;55.748;48.742;2023-05-28T20:07:16;9.75;;;8.23;;
65279;SDS011;51878;55.748;48.742;2023-05-28T20:12:18;9.90;;;8.90;;
65279;SDS011;51878;55.748;48.742;2023-05-28T20:17:21;8.85;;;8.02;;
65279;SDS011;51878;55.748;48.742;2023-05-28T20:22:23;8.73;;;7.82;;
65279;SDS011;51878;55.748;48.742;2023-05-28T20:27:26;11.45;;;7.63;;
65279;SDS011;51878;55.748;48.742;2023-05-28T20:32:28;10.00;;;7.97;;
65279;SDS011;51878;55.748;48.742;2023-05-28T20:37:31;7.72;;;5.68;;
65279;SDS011;51878;55.748;48.742;2023-05-28T20:42:42;5.47;;;4.97;;
65279;SDS011;51878;55.748;48.742;2023-05-28T20:47:47;6.35;;;5.30;;
65279;SDS011;51878;55.748;48.742;2023-05-28T20:52:49;5.80;;;5.20;;
65279;SDS011;51878;55.748;48.742;2023-05-28T20:57:52;6.65;;;4.97;;
65279;SDS011;51878;55.748;48.742;2023-05-28T21:02:56;6.47;;;5.15;;
65279;SDS011;51878;55.748;48.742;2023-05-28T21:07:59;5.72;;;5.03;;
65279;SDS011;51878;55.748;48.742;2023-05-28T21:13:02;9.27;;;5.70;;
65279;SDS011;51878;55.748;48.742;2023-05-28T21:18:04;8.98;;;5.70;;
65279;SDS011;51878;55.748;48.742;2023-05-28T21:23:06;6.78;;;6.07;;
65279;SDS011;51878;55.748;48.742;2023-05-28T21:28:09;10.52;;;7.63;;
65279;SDS011;51878;55.748;48.742;2023-05-28T21:33:11;9.52;;;8.35;;
65279;SDS011;51878;55.748;48.742;2023-05-28T21:38:14;7.18;;;6.47;;
65279;SDS011;51878;55.748;48.742;2023-05-28T21:43:19;9.98;;;8.60;;
65279;SDS011;51878;55.748;48.742;2023-05-28T21:48:23;11.88;;;8.77;;
65279;SDS011;51878;55.748;48.742;2023-05-28T21:53:25;17.38;;;12.13;;
65279;SDS011;51878;55.748;48.742;2023-05-28T21:58:28;18.88;;;13.25;;
65279;SDS011;51878;55.748;48.742;2023-05-28T22:03:30;16.73;;;14.07;;
65279;SDS011;51878;55.748;48.742;2023-05-28T22:08:32;19.00;;;15.07;;
65279;SDS011;51878;55.748;48.742;2023-05-28T22:13:35;22.08;;;15.13;;
65279;SDS011;51878;55.748;48.742;2023-05-28T22:18:39;18.83;;;15.50;;
65279;SDS011;51878;55.748;48.742;2023-05-28T22:23:42;19.83;;;11.63;;
65279;SDS011;51878;55.748;48.742;2023-05-28T22:28:44;12.23;;;10.10;;
65279;SDS011;51878;55.748;48.742;2023-05-28T22:33:59;14.95;;;11.82;;
65279;SDS011;51878;55.748;48.742;2023-05-28T22:39:03;14.10;;;10.82;;
65279;SDS011;51878;55.748;48.742;2023-05-28T22:44:11;9.85;;;8.60;;
65279;SDS011;51878;55.748;48.742;2023-05-28T22:49:14;14.55;;;9.10;;
65279;SDS011;51878;55.748;48.742;2023-05-28T22:54:17;10.13;;;8.60;;
65279;SDS011;51878;55.748;48.742;2023-05-28T22:59:20;10.80;;;9.35;;
65279;SDS011;51878;55.748;48.742;2023-05-28T23:04:22;9.82;;;8.45;;
65279;SDS011;51878;55.748;48.742;2023-05-28T23:09:25;9.45;;;7.20;;
65279;SDS011;51878;55.748;48.742;2023-05-28T23:14:27;8.70;;;7.50;;
65279;SDS011;51878;55.748;48.742;2023-05-28T23:19:30;12.27;;;9.00;;
65279;SDS011;51878;55.748;48.742;2023-05-28T23:24:32;9.93;;;8.82;;
65279;SDS011;51878;55.748;48.742;2023-05-28T23:29:34;9.23;;;7.45;;
65279;SDS011;51878;55.748;48.742;2023-05-28T23:34:40;11.35;;;8.95;;
65279;SDS011;51878;55.748;48.742;2023-05-28T23:39:44;15.15;;;8.50;;
65279;SDS011;51878;55.748;48.742;2023-05-28T23:44:47;11.35;;;8.23;;
65279;SDS011;51878;55.748;48.742;2023-05-28T23:49:49;12.23;;;8.93;;
65279;SDS011;51878;55.748;48.742;2023-05-28T23:54:51;9.50;;;8.52;;
65279;SDS011;51878;55.748;48.742;2023-05-28T23:59:53;9.38;;;7.55;;
